createdAt,value
2022-10-14T00:01:27.117Z,451.23
2022-10-14T00:03:56.128Z,441.80
2022-10-14T00:06:28.109Z,450.27
2022-10-14T00:08:56.854Z,446.88
2022-10-14T00:11:29.019Z,448.98
2022-10-14T00:14:09.205Z,448.27
2022-10-14T00:16:40.940Z,438.80
2022-10-14T00:19:12.715Z,439.98
2022-10-14T00:21:44.641Z,444.45
2022-10-14T00:24:14.599Z,437.40
2022-10-14T00:26:42.833Z,441.60
2022-10-14T00:29:15.732Z,450.83
2022-10-14T00:31:43.685Z,449.10
2022-10-14T00:34:13.272Z,438.38
2022-10-14T00:36:41.388Z,448.33
2022-10-14T00:39:11.807Z,434.75
2022-10-14T00:41:40.944Z,438.45
2022-10-14T00:44:28.754Z,437.38
2022-10-14T00:46:57.243Z,431.23
2022-10-14T00:49:31.424Z,446.30
2022-10-14T00:52:05.019Z,439.08
2022-10-14T00:54:45.336Z,440.75
2022-10-14T00:57:14.495Z,433.23
2022-10-14T00:59:42.618Z,429.50
2022-10-14T01:02:10.667Z,432.17
2022-10-14T01:04:41.538Z,446.80
2022-10-14T01:07:44.773Z,443.92
2022-10-14T01:10:40.105Z,432.50
2022-10-14T01:13:27.013Z,426.65
2022-10-14T01:16:49.131Z,434.08
2022-10-14T01:20:07.946Z,424.45
2022-10-14T01:22:47.823Z,422.75
2022-10-14T01:25:33.321Z,425.42
2022-10-14T01:28:49.052Z,427.10
2022-10-14T01:31:29.378Z,420.15
2022-10-14T01:34:02.775Z,433.00
2022-10-14T01:36:47.299Z,431.50
2022-10-14T01:39:26.971Z,424.23
2022-10-14T01:42:08.583Z,424.10
2022-10-14T01:44:42.272Z,428.58
2022-10-14T01:47:14.064Z,430.73
2022-10-14T01:49:50.716Z,427.27
2022-10-14T01:52:23.461Z,436.00
2022-10-14T01:54:56.659Z,435.60
2022-10-14T01:57:29.048Z,437.05
2022-10-14T01:59:59.805Z,429.50
2022-10-14T02:02:27.820Z,434.80
2022-10-14T02:04:55.847Z,437.40
2022-10-14T02:07:37.785Z,436.65
2022-10-14T02:10:29.925Z,436.48
2022-10-14T02:13:28.574Z,428.48
2022-10-14T02:16:09.938Z,423.27
2022-10-14T02:19:18.804Z,427.00
2022-10-14T02:21:56.076Z,419.98
2022-10-14T02:24:44.032Z,427.55
2022-10-14T02:27:19.033Z,449.55
2022-10-14T02:29:48.392Z,428.10
2022-10-14T02:32:20.369Z,433.05
2022-10-14T02:34:55.029Z,425.95
2022-10-14T02:37:23.958Z,429.02
2022-10-14T02:40:03.547Z,430.35
2022-10-14T02:42:32.727Z,426.85
2022-10-14T02:45:01.749Z,427.02
2022-10-14T02:47:29.957Z,440.17
2022-10-14T02:49:58.028Z,435.15
2022-10-14T02:52:26.109Z,437.25
2022-10-14T02:54:54.659Z,436.85
2022-10-14T02:57:23.508Z,436.42
2022-10-14T02:59:51.566Z,431.13
2022-10-14T03:02:19.896Z,458.08
2022-10-14T03:04:48.749Z,433.77
2022-10-14T03:07:16.950Z,429.98
2022-10-14T03:09:49.556Z,434.33
2022-10-14T03:12:19.050Z,423.80
2022-10-14T03:14:47.248Z,431.60
2022-10-14T03:17:18.231Z,430.20
2022-10-14T03:19:47.357Z,428.63
2022-10-14T03:22:16.497Z,423.05
2022-10-14T03:24:45.490Z,422.70
2022-10-14T03:27:26.094Z,425.55
2022-10-14T03:29:59.832Z,414.30
2022-10-14T03:32:27.703Z,417.42
2022-10-14T03:35:21.970Z,408.58
2022-10-14T03:37:54.853Z,409.98
2022-10-14T03:40:30.788Z,415.55
2022-10-14T03:43:01.477Z,421.08
2022-10-14T03:45:37.035Z,412.75
2022-10-14T03:48:06.411Z,414.88
2022-10-14T03:50:34.458Z,414.00
2022-10-14T03:53:02.394Z,415.65
2022-10-14T03:55:36.362Z,413.35
2022-10-14T03:58:06.633Z,421.60
2022-10-14T04:00:35.782Z,415.25
2022-10-14T04:03:22.087Z,408.13
2022-10-14T04:05:49.990Z,419.13
2022-10-14T04:08:22.717Z,416.92
2022-10-14T04:10:56.979Z,405.55
2022-10-14T04:13:26.482Z,426.88
2022-10-14T04:15:54.874Z,420.05
2022-10-14T04:18:31.927Z,412.15
2022-10-14T04:21:10.954Z,413.88
2022-10-14T04:23:39.552Z,404.23
2022-10-14T04:26:15.280Z,411.55
2022-10-14T04:28:45.839Z,410.77
2022-10-14T04:31:21.065Z,412.20
2022-10-14T04:33:59.139Z,416.60
2022-10-14T04:36:35.062Z,412.95
2022-10-14T04:39:05.058Z,414.92
2022-10-14T04:41:33.156Z,412.35
2022-10-14T04:44:02.595Z,418.98
2022-10-14T04:46:35.982Z,419.15
2022-10-14T04:49:03.900Z,415.55
2022-10-14T04:51:37.993Z,413.88
2022-10-14T04:54:24.177Z,410.63
2022-10-14T04:56:55.043Z,409.30
2022-10-14T04:59:23.083Z,411.52
2022-10-14T05:01:56.789Z,408.85
2022-10-14T05:04:32.486Z,410.13
2022-10-14T05:07:01.973Z,409.80
2022-10-14T05:09:30.607Z,423.77
2022-10-14T05:11:59.416Z,410.55
2022-10-14T05:14:38.224Z,405.65
2022-10-14T05:17:22.594Z,408.45
2022-10-14T05:19:50.583Z,413.05
2022-10-14T05:22:20.385Z,407.85
2022-10-14T05:24:48.604Z,404.20
2022-10-14T05:27:17.964Z,409.55
2022-10-14T05:29:46.759Z,404.20
2022-10-14T05:32:16.118Z,406.48
2022-10-14T05:34:46.863Z,406.58
2022-10-14T05:37:24.457Z,412.48
2022-10-14T05:39:55.421Z,404.63
2022-10-14T05:42:27.207Z,406.27
2022-10-14T05:44:57.966Z,402.58
2022-10-14T05:47:27.004Z,414.45
2022-10-14T05:50:03.186Z,401.63
2022-10-14T05:52:34.349Z,405.17
2022-10-14T05:55:10.048Z,416.08
2022-10-14T05:57:38.203Z,407.25
2022-10-14T06:00:08.046Z,401.60
2022-10-14T06:02:45.028Z,408.60
2022-10-14T06:05:17.232Z,401.40
2022-10-14T06:07:45.350Z,407.48
2022-10-14T06:10:13.312Z,412.85
2022-10-14T06:12:42.036Z,411.00
2022-10-14T06:15:10.722Z,413.88
2022-10-14T06:17:38.701Z,418.23
2022-10-14T06:20:07.517Z,408.85
2022-10-14T06:22:35.337Z,411.52
2022-10-14T06:25:04.661Z,415.38
2022-10-14T06:27:32.655Z,419.65
2022-10-14T06:30:00.517Z,415.85
2022-10-14T06:32:28.449Z,414.25
2022-10-14T06:34:56.279Z,421.52
2022-10-14T06:37:24.769Z,423.98
2022-10-14T06:39:52.594Z,640.03
2022-10-14T06:42:20.580Z,481.30
2022-10-14T06:44:48.429Z,451.83
2022-10-14T06:47:16.310Z,446.67
2022-10-14T06:49:44.274Z,435.08
2022-10-14T06:52:12.222Z,441.80
2022-10-14T06:54:42.567Z,441.08
2022-10-14T06:57:12.560Z,437.58
2022-10-14T06:59:40.485Z,446.15
2022-10-14T07:02:10.158Z,441.17
2022-10-14T07:04:40.211Z,442.67
2022-10-14T07:07:09.057Z,443.90
2022-10-14T07:09:37.422Z,444.65
2022-10-14T07:12:05.490Z,450.23
2022-10-14T07:14:33.392Z,456.40
2022-10-14T07:17:01.396Z,454.77
2022-10-14T07:19:29.514Z,460.25
2022-10-14T07:21:57.556Z,464.83
2022-10-14T07:24:25.732Z,467.33
2022-10-14T07:26:53.980Z,486.85
2022-10-14T07:29:25.816Z,478.85
2022-10-14T07:31:58.274Z,470.77
2022-10-14T07:34:26.714Z,477.20
2022-10-14T07:36:57.404Z,488.75
2022-10-14T07:39:25.979Z,485.70
2022-10-14T07:41:54.377Z,485.10
2022-10-14T07:44:25.028Z,490.35
2022-10-14T07:46:55.615Z,496.00
2022-10-14T07:49:24.187Z,495.73
2022-10-14T07:51:52.271Z,505.35
2022-10-14T07:54:26.171Z,500.70
2022-10-14T07:56:54.241Z,504.73
2022-10-14T07:59:22.312Z,513.55
2022-10-14T08:01:54.336Z,517.88
2022-10-14T08:04:26.084Z,524.67
2022-10-14T08:06:54.288Z,523.30
2022-10-14T08:09:22.884Z,529.13
2022-10-14T08:11:51.066Z,521.13
2022-10-14T08:14:19.675Z,533.60
2022-10-14T08:16:49.048Z,535.60
2022-10-14T08:19:17.409Z,534.00
2022-10-14T08:21:46.624Z,535.05
2022-10-14T08:24:22.915Z,532.13
2022-10-14T08:26:58.945Z,536.65
2022-10-14T08:29:29.521Z,535.00
2022-10-14T08:31:57.806Z,544.35
2022-10-14T08:34:28.768Z,550.47
2022-10-14T08:37:04.864Z,545.28
2022-10-14T08:39:36.050Z,549.60
2022-10-14T08:42:28.462Z,553.13
2022-10-14T08:45:08.981Z,548.97
2022-10-14T08:47:42.214Z,561.33
2022-10-14T08:50:39.688Z,554.83
2022-10-14T08:53:18.682Z,562.35
2022-10-14T08:56:00.824Z,565.88
2022-10-14T08:58:38.704Z,563.85
2022-10-14T09:01:30.659Z,571.65
2022-10-14T09:04:13.520Z,563.55
2022-10-14T09:06:46.158Z,574.13
2022-10-14T09:09:31.821Z,567.50
2022-10-14T09:12:08.487Z,575.20
2022-10-14T09:14:46.599Z,578.33
2022-10-14T09:17:22.584Z,581.38
2022-10-14T09:20:22.292Z,584.95
2022-10-14T09:23:05.030Z,581.20
2022-10-14T09:25:37.707Z,582.97
2022-10-14T09:28:06.122Z,594.38
2022-10-14T09:30:38.162Z,602.10
2022-10-14T09:33:09.811Z,599.45
2022-10-14T09:35:42.322Z,603.60
2022-10-14T09:38:13.258Z,610.28
2022-10-14T09:40:55.466Z,610.88
2022-10-14T09:43:25.593Z,615.25
2022-10-14T09:46:11.875Z,614.30
2022-10-14T09:48:45.435Z,611.33
2022-10-14T09:51:24.837Z,617.33
2022-10-14T09:54:04.542Z,622.15
2022-10-14T09:56:41.927Z,617.72
2022-10-14T09:59:19.793Z,621.58
2022-10-14T10:02:00.890Z,627.67
2022-10-14T10:04:48.186Z,631.50
2022-10-14T10:07:27.945Z,629.15
2022-10-14T10:10:02.536Z,624.08
2022-10-14T10:12:34.347Z,633.92
2022-10-14T10:15:06.037Z,631.88
2022-10-14T10:17:40.602Z,653.58
2022-10-14T10:20:28.688Z,640.60
2022-10-14T10:22:57.997Z,646.67
2022-10-14T10:25:28.843Z,644.00
2022-10-14T10:27:59.625Z,657.67
2022-10-14T10:30:34.340Z,658.25
2022-10-14T10:33:07.955Z,662.20
2022-10-14T10:36:02.198Z,664.08
2022-10-14T10:38:38.034Z,656.75
2022-10-14T10:41:35.064Z,661.95
2022-10-14T10:44:33.797Z,658.33
2022-10-14T10:47:09.881Z,653.70
2022-10-14T10:50:37.145Z,662.08
2022-10-14T10:53:40.838Z,653.47
2022-10-14T10:56:39.472Z,655.20
2022-10-14T10:59:40.972Z,666.85
2022-10-14T11:02:24.028Z,675.83
2022-10-14T11:05:04.860Z,675.70
2022-10-14T11:07:57.318Z,683.55
2022-10-14T11:11:04.151Z,673.38
2022-10-14T11:14:10.461Z,672.95
2022-10-14T11:17:09.419Z,670.38
2022-10-14T11:19:54.355Z,673.08
2022-10-14T11:22:43.289Z,684.55
2022-10-14T11:25:26.544Z,673.42
2022-10-14T11:28:13.350Z,688.13
2022-10-14T11:31:19.579Z,685.72
2022-10-14T11:34:00.420Z,669.47
2022-10-14T11:36:45.846Z,671.15
2022-10-14T11:39:31.951Z,678.05
2022-10-14T11:42:18.013Z,678.60
2022-10-14T11:47:39.800Z,682.65
2022-10-14T11:50:19.858Z,680.53
2022-10-14T11:53:19.858Z,677.40
2022-10-14T11:56:03.711Z,684.72
2022-10-14T11:58:36.536Z,678.03
2022-10-14T12:01:18.168Z,683.10
2022-10-14T12:03:48.369Z,683.15
2022-10-14T12:06:57.867Z,705.25
2022-10-14T12:09:39.521Z,687.63
2022-10-14T12:12:17.698Z,674.78
2022-10-14T12:14:51.492Z,685.47
2022-10-14T12:17:36.631Z,683.08
2022-10-14T12:20:32.141Z,686.00
2022-10-14T12:23:01.670Z,682.63
2022-10-14T12:26:11.278Z,686.78
2022-10-14T12:28:40.146Z,683.13
2022-10-14T12:31:49.698Z,695.03
2022-10-14T12:34:33.200Z,693.33
2022-10-14T12:37:27.389Z,692.78
2022-10-14T12:40:07.254Z,697.25
2022-10-14T12:42:48.117Z,701.17
2022-10-14T12:45:27.000Z,694.90
2022-10-14T12:48:37.222Z,707.47
2022-10-14T12:51:20.089Z,709.58
2022-10-14T12:54:17.748Z,711.33
2022-10-14T12:57:17.554Z,720.20
2022-10-14T12:59:50.847Z,719.65
2022-10-14T13:02:32.611Z,729.78
2022-10-14T13:05:09.013Z,721.47
2022-10-14T13:07:45.596Z,738.20
2022-10-14T13:10:54.442Z,720.75
2022-10-14T13:13:56.649Z,714.17
2022-10-14T13:16:30.655Z,714.83
2022-10-14T13:19:05.019Z,726.67
2022-10-14T13:21:36.232Z,725.72
2022-10-14T13:24:28.540Z,714.05
2022-10-14T13:26:56.273Z,712.20
2022-10-14T13:30:06.004Z,737.78
2022-10-14T13:33:05.215Z,716.05
2022-10-14T13:35:49.734Z,705.58
2022-10-14T13:38:21.081Z,705.85
2022-10-14T13:40:58.788Z,707.95
2022-10-14T13:43:42.730Z,713.10
2022-10-14T13:46:37.259Z,699.97
2022-10-14T13:49:20.411Z,684.08
2022-10-14T13:52:04.635Z,687.03
2022-10-14T13:54:32.808Z,690.05
2022-10-14T13:57:38.188Z,691.55
2022-10-14T14:02:53.375Z,688.17
2022-10-14T14:08:35.296Z,689.40
2022-10-14T14:11:18.162Z,681.10
2022-10-14T14:14:15.405Z,681.95
2022-10-14T14:16:56.955Z,675.80
2022-10-14T14:19:33.302Z,675.20
2022-10-14T14:22:24.382Z,683.15
2022-10-14T14:24:52.738Z,669.80
2022-10-14T14:27:26.734Z,677.72
2022-10-14T14:29:55.371Z,677.42
2022-10-14T14:32:30.849Z,683.40
2022-10-14T14:35:00.303Z,673.97
2022-10-14T14:37:52.862Z,683.08
2022-10-14T14:40:23.804Z,673.35
2022-10-14T14:42:58.753Z,672.65
2022-10-14T14:45:35.570Z,670.42
2022-10-14T14:48:06.931Z,662.55
2022-10-14T14:50:43.317Z,667.15
2022-10-14T14:53:20.820Z,662.63
2022-10-14T14:55:54.688Z,664.00
2022-10-14T14:58:28.429Z,659.22
2022-10-14T15:00:56.948Z,661.78
2022-10-14T15:03:29.369Z,659.58
2022-10-14T15:06:02.021Z,652.95
2022-10-14T15:08:37.903Z,645.72
2022-10-14T15:11:06.368Z,653.08
2022-10-14T15:13:40.398Z,643.38
2022-10-14T15:16:08.503Z,648.60
2022-10-14T15:18:43.547Z,645.00
2022-10-14T15:21:21.734Z,639.58
2022-10-14T15:23:49.773Z,640.47
2022-10-14T15:26:35.246Z,644.85
2022-10-14T15:29:26.030Z,642.08
2022-10-14T15:32:04.617Z,634.30
2022-10-14T15:34:40.468Z,643.13
2022-10-14T15:37:13.883Z,635.55
2022-10-14T15:39:44.513Z,634.85
2022-10-14T15:42:15.251Z,641.85
2022-10-14T15:44:43.302Z,640.22
2022-10-14T15:47:22.556Z,637.58
2022-10-14T15:49:50.982Z,631.88
2022-10-14T15:52:20.556Z,638.42
2022-10-14T15:54:51.339Z,637.17
2022-10-14T15:57:19.579Z,636.58
2022-10-14T15:59:52.856Z,629.78
2022-10-14T16:02:31.455Z,635.20
2022-10-14T16:05:18.225Z,626.40
2022-10-14T16:07:48.617Z,622.38
2022-10-14T16:10:21.177Z,619.60
2022-10-14T16:12:51.816Z,624.00
2022-10-14T16:15:47.771Z,620.47
2022-10-14T16:18:18.467Z,625.95
2022-10-14T16:20:46.701Z,622.00
2022-10-14T16:23:22.692Z,623.33
2022-10-14T16:25:53.591Z,621.05
2022-10-14T16:28:21.876Z,618.78
2022-10-14T16:30:52.384Z,610.38
2022-10-14T16:33:22.063Z,599.50
2022-10-14T16:35:54.516Z,606.75
2022-10-14T16:38:24.354Z,608.65
2022-10-14T16:41:03.284Z,609.10
2022-10-14T16:43:31.607Z,603.65
2022-10-14T16:46:05.251Z,605.13
2022-10-14T16:48:34.487Z,601.25
2022-10-14T16:51:03.012Z,598.70
2022-10-14T16:53:40.859Z,598.50
2022-10-14T16:56:36.546Z,596.50
2022-10-14T16:59:07.767Z,584.80
2022-10-14T17:01:36.895Z,586.75
2022-10-14T17:04:07.815Z,596.03
2022-10-14T17:06:39.106Z,592.58
2022-10-14T17:09:07.181Z,590.60
2022-10-14T17:11:35.261Z,584.67
2022-10-14T17:14:06.761Z,587.30
2022-10-14T17:16:36.010Z,584.80
2022-10-14T17:19:04.331Z,587.35
2022-10-14T17:21:35.153Z,583.13
2022-10-14T17:24:05.033Z,584.30
2022-10-14T17:26:39.642Z,588.53
2022-10-14T17:29:10.802Z,581.53
2022-10-14T17:31:39.127Z,582.80
2022-10-14T17:34:19.479Z,582.40
2022-10-14T17:36:51.427Z,582.05
2022-10-14T17:39:28.476Z,575.92
2022-10-14T17:42:00.448Z,566.83
2022-10-14T17:44:30.694Z,590.50
2022-10-14T17:47:00.549Z,580.15
2022-10-14T17:49:31.330Z,578.33
2022-10-14T17:52:02.221Z,574.33
2022-10-14T17:54:30.555Z,577.20
2022-10-14T17:56:58.597Z,579.72
2022-10-14T17:59:27.498Z,574.88
2022-10-14T18:02:03.630Z,580.95
2022-10-14T18:04:32.900Z,581.38
2022-10-14T18:07:01.198Z,575.10
2022-10-14T18:09:29.176Z,575.92
2022-10-14T18:12:13.423Z,577.88
2022-10-14T18:14:44.977Z,573.83
2022-10-14T18:17:13.077Z,571.03
2022-10-14T18:19:42.118Z,572.20
2022-10-14T18:22:11.382Z,574.70
2022-10-14T18:24:39.881Z,570.80
2022-10-14T18:27:07.939Z,575.45
2022-10-14T18:29:35.861Z,566.13
2022-10-14T18:32:04.854Z,565.30
2022-10-14T18:34:33.183Z,560.55
2022-10-14T18:37:01.074Z,563.58
2022-10-14T18:39:28.993Z,564.47
2022-10-14T18:41:56.973Z,571.05
2022-10-14T18:44:24.874Z,567.58
2022-10-14T18:46:53.558Z,561.30
2022-10-14T18:49:21.609Z,565.05
2022-10-14T18:51:49.623Z,566.35
2022-10-14T18:54:21.423Z,568.50
2022-10-14T18:56:49.384Z,560.03
2022-10-14T18:59:23.204Z,557.17
2022-10-14T19:01:53.354Z,554.35
2022-10-14T19:04:25.676Z,557.80
2022-10-14T19:06:59.230Z,557.47
2022-10-14T19:09:29.808Z,557.78
2022-10-14T19:11:59.254Z,553.45
2022-10-14T19:14:28.931Z,554.72
2022-10-14T19:16:56.909Z,559.88
2022-10-14T19:19:25.229Z,554.03
2022-10-14T19:21:54.643Z,554.45
2022-10-14T19:24:22.702Z,547.30
2022-10-14T19:26:50.535Z,549.78
2022-10-14T19:29:18.589Z,542.63
2022-10-14T19:31:46.545Z,540.53
2022-10-14T19:34:16.447Z,543.92
2022-10-14T19:36:45.884Z,540.13
2022-10-14T19:39:16.480Z,543.63
2022-10-14T19:41:46.539Z,535.92
2022-10-14T19:44:16.254Z,540.92
2022-10-14T19:46:45.263Z,543.15
2022-10-14T19:49:15.820Z,534.90
2022-10-14T19:51:43.982Z,537.45
2022-10-14T19:54:13.828Z,535.60
2022-10-14T19:56:42.099Z,531.58
2022-10-14T19:59:10.975Z,533.13
2022-10-14T20:01:38.957Z,537.08
2022-10-14T20:04:07.313Z,543.85
2022-10-14T20:06:38.211Z,542.88
2022-10-14T20:09:07.791Z,539.55
2022-10-14T20:11:36.078Z,541.55
2022-10-14T20:14:04.191Z,557.13
2022-10-14T20:16:32.756Z,566.33
2022-10-14T20:19:01.011Z,541.53
2022-10-14T20:21:31.034Z,537.08
2022-10-14T20:23:59.680Z,540.20
2022-10-14T20:27:03.775Z,533.92
2022-10-14T20:29:36.701Z,517.53
2022-10-14T20:32:05.248Z,535.30
2022-10-14T20:34:34.529Z,566.97
2022-10-14T20:37:04.082Z,549.95
2022-10-14T20:39:32.391Z,608.25
2022-10-14T20:42:00.674Z,542.38
2022-10-14T20:44:28.631Z,540.95
2022-10-14T20:46:57.285Z,540.10
2022-10-14T20:49:25.228Z,539.88
2022-10-14T20:51:53.111Z,548.90
2022-10-14T20:54:21.252Z,530.05
2022-10-14T20:56:49.777Z,530.13
2022-10-14T20:59:17.736Z,528.80
2022-10-14T21:01:45.846Z,525.53
2022-10-14T21:04:13.678Z,529.17
2022-10-14T21:06:41.611Z,536.80
2022-10-14T21:09:10.878Z,536.85
2022-10-14T21:11:39.451Z,523.55
2022-10-14T21:14:07.577Z,524.78
2022-10-14T21:16:36.954Z,529.33
2022-10-14T21:19:08.974Z,528.47
2022-10-14T21:21:41.500Z,521.42
2022-10-14T21:24:14.732Z,524.75
2022-10-14T21:26:42.685Z,530.67
2022-10-14T21:29:10.768Z,526.33
2022-10-14T21:31:39.364Z,527.58
2022-10-14T21:34:07.980Z,528.58
2022-10-14T21:36:37.058Z,522.03
2022-10-14T21:39:16.863Z,538.80
2022-10-14T21:41:46.136Z,524.72
2022-10-14T21:44:17.017Z,527.60
2022-10-14T21:46:45.068Z,531.47
2022-10-14T21:49:13.495Z,535.95
2022-10-14T21:51:41.420Z,526.50
2022-10-14T21:54:12.339Z,528.50
2022-10-14T21:56:40.263Z,528.03
2022-10-14T21:59:08.292Z,525.05
2022-10-14T22:01:36.157Z,525.88
2022-10-14T22:04:06.395Z,528.97
2022-10-14T22:06:36.219Z,525.80
2022-10-14T22:09:07.492Z,525.08
2022-10-14T22:11:39.885Z,525.92
2022-10-14T22:14:13.280Z,530.85
2022-10-14T22:16:41.435Z,521.60
2022-10-14T22:19:10.855Z,530.30
2022-10-14T22:21:42.051Z,529.45
2022-10-14T22:24:10.521Z,533.63
2022-10-14T22:26:42.417Z,528.72
2022-10-14T22:29:40.168Z,523.28
2022-10-14T22:32:07.999Z,524.55
2022-10-14T22:34:36.053Z,523.25
2022-10-14T22:37:03.910Z,529.38
2022-10-14T22:39:32.010Z,531.17
2022-10-14T22:42:00.136Z,528.05
2022-10-14T22:44:28.079Z,529.97
2022-10-14T22:46:56.045Z,530.58
2022-10-14T22:49:24.011Z,530.13
2022-10-14T22:51:54.543Z,534.35
2022-10-14T22:54:24.723Z,529.63
2022-10-14T22:56:52.567Z,525.40
2022-10-14T22:59:20.503Z,530.15
2022-10-14T23:01:48.419Z,521.60
2022-10-14T23:04:17.427Z,529.47
2022-10-14T23:06:49.368Z,525.63
2022-10-14T23:09:17.548Z,525.92
2022-10-14T23:11:45.453Z,531.50
2022-10-14T23:14:13.383Z,527.28
2022-10-14T23:16:41.355Z,532.10
2022-10-14T23:19:09.460Z,529.38
2022-10-14T23:21:38.747Z,523.25
2022-10-14T23:24:12.108Z,525.63
2022-10-14T23:26:39.994Z,526.67
2022-10-14T23:29:11.661Z,528.28
2022-10-14T23:31:40.718Z,529.72
2022-10-14T23:34:13.288Z,530.90
2022-10-14T23:36:41.613Z,530.53
2022-10-14T23:39:10.219Z,531.63
2022-10-14T23:41:41.197Z,532.42
2022-10-14T23:44:12.287Z,529.53
2022-10-14T23:46:40.240Z,533.22
2022-10-14T23:49:25.059Z,527.03
2022-10-14T23:51:55.565Z,525.88
2022-10-14T23:54:23.913Z,528.65
2022-10-14T23:56:52.158Z,533.42
2022-10-14T23:59:20.093Z,531.67
